Time;durP1;ratioP1;P1;durP2;ratioP2;P2;SDS_P1;SDS_P2;PMS_P1;PMS_P2;Temp;Humidity;BMP_temperature;BMP_pressure;BME280_temperature;BME280_humidity;BME280_pressure;Samples;Min_cycle;Max_cycle;Signal;HPM_P1;HPM_P2
2021/03/06 00:00:30;;;;;;;;;;;4.70;68.10;;;;;;4231240;34;31090;-74
2021/03/06 00:03:02;;;;;;;;;;;4.70;67.40;;;;;;4232904;33;20129;-74
2021/03/06 00:05:31;;;;;;;;;;;4.70;67.50;;;;;;4243342;33;20011;-74
2021/03/06 00:07:58;;;;;;;;;;;4.60;67.50;;;;;;4231815;33;20008;-74
2021/03/06 00:10:27;;;;;;;;;;;4.60;67.60;;;;;;4242741;33;37658;-74
2021/03/06 00:12:56;;;;;;;;;;;4.60;67.60;;;;;;4231894;33;26308;-74
2021/03/06 00:15:24;;;;;;;;;;;4.60;67.60;;;;;;4231586;33;20008;-74
2021/03/06 00:17:52;;;;;;;;;;;4.60;67.60;;;;;;4231674;34;20016;-74
2021/03/06 00:20:19;;;;;;;;;;;4.60;67.50;;;;;;4242106;33;31340;-74
2021/03/06 00:22:52;;;;;;;;;;;4.60;67.50;;;;;;4232040;33;33108;-74
2021/03/06 00:25:19;;;;;;;;;;;4.60;67.50;;;;;;4231073;34;22794;-74
2021/03/06 00:27:46;;;;;;;;;;;4.60;67.50;;;;;;4231421;33;20454;-75
2021/03/06 00:30:17;;;;;;;;;;;4.60;67.50;;;;;;4231833;34;20107;-74
2021/03/06 00:32:47;;;;;;;;;;;4.60;67.50;;;;;;4242743;33;20016;-74
2021/03/06 00:35:16;;;;;;;;;;;4.60;67.50;;;;;;4243135;33;20122;-74
2021/03/06 00:37:43;;;;;;;;;;;4.60;67.50;;;;;;4243334;33;20356;-74
2021/03/06 00:40:13;;;;;;;;;;;4.60;67.50;;;;;;4243206;33;20034;-74
2021/03/06 00:42:40;;;;;;;;;;;4.50;67.50;;;;;;4231759;34;20000;-75
2021/03/06 00:45:10;;;;;;;;;;;4.50;67.60;;;;;;4242668;33;20012;-74
2021/03/06 00:47:43;;;;;;;;;;;4.50;67.60;;;;;;4242234;33;35343;-74
2021/03/06 00:50:18;;;;;;;;;;;4.50;67.60;;;;;;4242060;33;33909;-75
2021/03/06 00:52:45;;;;;;;;;;;4.50;67.80;;;;;;4218917;34;38170;-75
2021/03/06 00:55:14;;;;;;;;;;;4.50;67.80;;;;;;4231360;33;20004;-74
2021/03/06 00:57:41;;;;;;;;;;;4.40;67.70;;;;;;4231832;33;28884;-74
2021/03/06 01:00:11;;;;;;;;;;;4.40;67.70;;;;;;4229932;34;32399;-74
2021/03/06 01:02:37;;;;;;;;;;;4.40;67.70;;;;;;4230665;34;20011;-74
2021/03/06 01:05:13;;;;;;;;;;;4.40;67.80;;;;;;4241735;33;34097;-74
2021/03/06 01:07:40;;;;;;;;;;;4.40;67.90;;;;;;4231368;33;36212;-75
2021/03/06 01:10:08;;;;;;;;;;;4.30;67.80;;;;;;4230816;33;40240;-74
2021/03/06 01:12:35;;;;;;;;;;;4.30;67.90;;;;;;4232046;33;20018;-74
2021/03/06 01:15:02;;;;;;;;;;;4.30;68.10;;;;;;4230476;34;20025;-74
2021/03/06 01:17:34;;;;;;;;;;;4.30;68.10;;;;;;4230718;33;30421;-75
2021/03/06 01:20:03;;;;;;;;;;;4.30;68.10;;;;;;4230959;33;20014;-75
2021/03/06 01:22:29;;;;;;;;;;;4.30;68.10;;;;;;4229901;34;28344;-74
2021/03/06 01:25:00;;;;;;;;;;;4.30;68.20;;;;;;4230229;33;26092;-74
2021/03/06 01:27:28;;;;;;;;;;;4.30;68.20;;;;;;4230550;34;20031;-74
2021/03/06 01:29:54;;;;;;;;;;;4.30;68.30;;;;;;4231342;33;30984;-75
2021/03/06 01:32:24;;;;;;;;;;;4.20;68.30;;;;;;4230174;34;22466;-74
2021/03/06 01:34:52;;;;;;;;;;;4.20;68.30;;;;;;4229979;34;33260;-74
2021/03/06 01:37:18;;;;;;;;;;;4.20;68.40;;;;;;4218154;34;31426;-75
2021/03/06 01:39:48;;;;;;;;;;;4.20;68.50;;;;;;4229885;34;31154;-75
2021/03/06 01:42:21;;;;;;;;;;;4.20;68.50;;;;;;4229974;34;20011;-75
2021/03/06 01:44:51;;;;;;;;;;;4.20;68.50;;;;;;4241587;33;31657;-75
2021/03/06 01:47:21;;;;;;;;;;;4.20;68.50;;;;;;4230918;33;20064;-75
2021/03/06 01:49:51;;;;;;;;;;;4.20;68.50;;;;;;4230308;34;20014;-75
2021/03/06 01:52:20;;;;;;;;;;;4.10;68.50;;;;;;4232081;33;20019;-75
2021/03/06 01:54:55;;;;;;;;;;;4.10;68.40;;;;;;4240953;33;27519;-75
2021/03/06 01:57:25;;;;;;;;;;;4.10;68.40;;;;;;4229697;34;39119;-74
2021/03/06 01:59:52;;;;;;;;;;;4.10;68.40;;;;;;4229585;34;38290;-74
2021/03/06 02:02:19;;;;;;;;;;;4.10;68.40;;;;;;4229335;34;31584;-74
2021/03/06 02:04:46;;;;;;;;;;;4.10;68.50;;;;;;4229383;34;30370;-74
2021/03/06 02:07:13;;;;;;;;;;;4.10;68.60;;;;;;4242055;33;20007;-74
2021/03/06 02:09:42;;;;;;;;;;;4.10;68.60;;;;;;4231644;33;20055;-74
2021/03/06 02:12:23;;;;;;;;;;;4.10;68.60;;;;;;4242042;33;20038;-74
2021/03/06 02:14:56;;;;;;;;;;;4.10;68.60;;;;;;4230759;34;20398;-74
2021/03/06 02:17:42;;;;;;;;;;;4.10;68.50;;;;;;4231309;34;19999;-74
2021/03/06 02:20:24;;;;;;;;;;;4.10;68.70;;;;;;4241421;33;27144;-74
2021/03/06 02:23:11;;;;;;;;;;;4.00;68.70;;;;;;4230356;33;20008;-74
2021/03/06 02:25:40;;;;;;;;;;;4.00;68.50;;;;;;4230970;33;20089;-74
2021/03/06 02:28:30;;;;;;;;;;;4.00;68.60;;;;;;4230445;33;20074;-74
2021/03/06 02:31:05;;;;;;;;;;;4.00;68.60;;;;;;4230387;33;19999;-74
2021/03/06 02:33:35;;;;;;;;;;;4.00;68.60;;;;;;4230817;33;20414;-74
2021/03/06 02:36:07;;;;;;;;;;;4.00;68.60;;;;;;4230603;33;20000;-74
2021/03/06 02:38:37;;;;;;;;;;;4.00;68.60;;;;;;4230072;34;20108;-74
2021/03/06 02:41:07;;;;;;;;;;;4.00;68.60;;;;;;4229995;33;20039;-74
2021/03/06 02:43:34;;;;;;;;;;;4.00;68.70;;;;;;4230222;33;20331;-75
2021/03/06 02:46:04;;;;;;;;;;;4.00;68.80;;;;;;4241352;33;20064;-74
2021/03/06 02:48:31;;;;;;;;;;;4.00;68.90;;;;;;4231207;33;20045;-74
2021/03/06 02:51:04;;;;;;;;;;;4.00;68.80;;;;;;4229777;34;20365;-74
2021/03/06 02:53:31;;;;;;;;;;;3.90;68.90;;;;;;4230212;33;20000;-74
2021/03/06 02:55:58;;;;;;;;;;;3.90;68.90;;;;;;4231816;33;20014;-74
2021/03/06 02:58:30;;;;;;;;;;;3.90;68.90;;;;;;4233156;33;31510;-74
2021/03/06 03:01:17;;;;;;;;;;;3.90;68.90;;;;;;4231656;34;32994;-74
2021/03/06 03:04:03;;;;;;;;;;;3.90;68.90;;;;;;4232732;34;20060;-74
2021/03/06 03:06:37;;;;;;;;;;;3.90;68.80;;;;;;4233990;33;20013;-74
2021/03/06 03:09:14;;;;;;;;;;;3.90;68.80;;;;;;4233732;33;20014;-74
2021/03/06 03:12:03;;;;;;;;;;;3.90;68.80;;;;;;4233125;33;31841;-74
2021/03/06 03:14:36;;;;;;;;;;;3.90;68.80;;;;;;4232805;33;20048;-74
2021/03/06 03:17:14;;;;;;;;;;;3.90;68.90;;;;;;4232991;33;20019;-74
2021/03/06 03:20:02;;;;;;;;;;;3.90;68.90;;;;;;4232264;33;22262;-74
2021/03/06 03:22:33;;;;;;;;;;;3.90;69.00;;;;;;4231484;33;40016;-74
2021/03/06 03:25:04;;;;;;;;;;;3.80;69.00;;;;;;4231951;34;26090;-74
2021/03/06 03:27:31;;;;;;;;;;;3.80;69.10;;;;;;4219853;34;31098;-74
2021/03/06 03:30:05;;;;;;;;;;;3.80;69.10;;;;;;4231326;34;26228;-74
2021/03/06 03:32:41;;;;;;;;;;;3.80;69.10;;;;;;4232717;33;40424;-74
2021/03/06 03:35:28;;;;;;;;;;;3.80;69.10;;;;;;4233321;33;20366;-74
2021/03/06 03:37:58;;;;;;;;;;;3.80;69.10;;;;;;4232006;33;20056;-74
2021/03/06 03:40:31;;;;;;;;;;;3.80;69.20;;;;;;4244213;33;20016;-74
2021/03/06 03:42:57;;;;;;;;;;;3.80;69.20;;;;;;4233384;33;20515;-74
2021/03/06 03:45:31;;;;;;;;;;;3.80;69.20;;;;;;4232410;33;20012;-74
2021/03/06 03:48:05;;;;;;;;;;;3.70;69.20;;;;;;4233469;33;20016;-74
2021/03/06 03:50:40;;;;;;;;;;;3.70;69.30;;;;;;4231959;33;20008;-74
2021/03/06 03:53:07;;;;;;;;;;;3.70;69.30;;;;;;4232471;34;20051;-74
2021/03/06 03:55:34;;;;;;;;;;;3.70;69.30;;;;;;4243511;33;20027;-74
2021/03/06 03:58:10;;;;;;;;;;;3.70;69.50;;;;;;4232311;34;20000;-74
2021/03/06 04:00:45;;;;;;;;;;;3.70;69.50;;;;;;4243596;33;20111;-74
2021/03/06 04:03:20;;;;;;;;;;;3.70;69.50;;;;;;4231770;33;20022;-74
2021/03/06 04:05:46;;;;;;;;;;;3.70;69.50;;;;;;4231834;33;20011;-74
2021/03/06 04:08:13;;;;;;;;;;;3.70;69.50;;;;;;4233089;33;20018;-74
2021/03/06 04:10:45;;;;;;;;;;;3.70;69.50;;;;;;4231983;34;20010;-74
2021/03/06 04:13:18;;;;;;;;;;;3.70;69.50;;;;;;4243212;33;20096;-74
2021/03/06 04:15:44;;;;;;;;;;;3.60;69.50;;;;;;4232886;33;20019;-74
2021/03/06 04:18:11;;;;;;;;;;;3.60;69.60;;;;;;4243436;33;20020;-74
2021/03/06 04:20:44;;;;;;;;;;;3.60;69.70;;;;;;4232773;33;20048;-74
2021/03/06 04:23:11;;;;;;;;;;;3.60;69.70;;;;;;4231951;33;20048;-74
2021/03/06 04:25:38;;;;;;;;;;;3.60;69.70;;;;;;4243567;33;20025;-74
2021/03/06 04:28:07;;;;;;;;;;;3.60;69.70;;;;;;4232874;33;20053;-74
2021/03/06 04:30:34;;;;;;;;;;;3.60;69.70;;;;;;4232859;33;20063;-74
2021/03/06 04:33:04;;;;;;;;;;;3.60;69.70;;;;;;4231286;34;20413;-74
2021/03/06 04:35:31;;;;;;;;;;;3.50;69.80;;;;;;4231472;33;20012;-74
2021/03/06 04:37:57;;;;;;;;;;;3.50;69.80;;;;;;4230885;34;20501;-74
2021/03/06 04:40:32;;;;;;;;;;;3.50;69.80;;;;;;4231629;33;20024;-74
2021/03/06 04:43:05;;;;;;;;;;;3.50;69.90;;;;;;4231217;33;20016;-74
2021/03/06 04:45:33;;;;;;;;;;;3.50;69.90;;;;;;4232691;33;20004;-74
2021/03/06 04:47:59;;;;;;;;;;;3.50;70.10;;;;;;4243155;33;20088;-74
2021/03/06 04:50:29;;;;;;;;;;;3.50;70.10;;;;;;4231520;34;20012;-74
2021/03/06 04:53:03;;;;;;;;;;;3.40;70.10;;;;;;4232475;33;20098;-74
2021/03/06 04:55:33;;;;;;;;;;;3.40;70.20;;;;;;4232580;33;20079;-74
2021/03/06 04:58:05;;;;;;;;;;;3.40;70.10;;;;;;4232550;33;20089;-75
2021/03/06 05:00:32;;;;;;;;;;;3.40;70.10;;;;;;4230891;34;20045;-74
2021/03/06 05:03:01;;;;;;;;;;;3.40;70.20;;;;;;4232002;33;20008;-74
2021/03/06 05:05:36;;;;;;;;;;;3.40;70.10;;;;;;4231954;33;20074;-74
2021/03/06 05:08:12;;;;;;;;;;;3.40;70.20;;;;;;4231192;34;20079;-74
2021/03/06 05:10:41;;;;;;;;;;;3.40;70.20;;;;;;4242996;33;20032;-75
2021/03/06 05:13:16;;;;;;;;;;;3.40;70.20;;;;;;4231860;33;20110;-74
2021/03/06 05:15:48;;;;;;;;;;;3.40;70.30;;;;;;4231067;34;20016;-75
2021/03/06 05:18:25;;;;;;;;;;;3.40;70.20;;;;;;4230958;33;20016;-74
2021/03/06 05:20:52;;;;;;;;;;;3.30;70.30;;;;;;4231085;33;20020;-74
2021/03/06 05:23:24;;;;;;;;;;;3.30;70.30;;;;;;4231892;33;20029;-74
2021/03/06 05:25:51;;;;;;;;;;;3.30;70.30;;;;;;4242700;33;20051;-74
2021/03/06 05:28:28;;;;;;;;;;;3.30;70.30;;;;;;4219276;34;20019;-74
2021/03/06 05:30:55;;;;;;;;;;;3.30;70.30;;;;;;4232111;33;20007;-74
2021/03/06 05:33:30;;;;;;;;;;;3.30;70.40;;;;;;4230477;33;20438;-75
2021/03/06 05:36:04;;;;;;;;;;;3.30;70.40;;;;;;4242544;33;20083;-75
2021/03/06 05:38:37;;;;;;;;;;;3.30;70.50;;;;;;4230925;33;20019;-74
2021/03/06 05:41:06;;;;;;;;;;;3.30;70.60;;;;;;4242554;33;20012;-75
2021/03/06 05:43:33;;;;;;;;;;;3.20;70.60;;;;;;4230879;34;20016;-75
2021/03/06 05:46:03;;;;;;;;;;;3.20;70.70;;;;;;4231907;33;20075;-75
2021/03/06 05:48:31;;;;;;;;;;;3.20;70.70;;;;;;4241946;33;20021;-75
2021/03/06 05:51:01;;;;;;;;;;;3.20;71.50;;;;;;4240927;33;36929;-74
2021/03/06 05:53:37;;;;;;;;;;;3.20;70.90;;;;;;4230867;33;41945;-75
2021/03/06 05:56:07;;;;;;;;;;;3.10;70.80;;;;;;4230102;33;20015;-74
2021/03/06 05:58:36;;;;;;;;;;;3.10;71.00;;;;;;4230261;33;19996;-74
2021/03/06 06:01:09;;;;;;;;;;;3.10;71.10;;;;;;4230722;33;20418;-74
2021/03/06 06:03:35;;;;;;;;;;;3.10;71.00;;;;;;4229918;34;20018;-75
2021/03/06 06:06:08;;;;;;;;;;;3.10;71.10;;;;;;4231877;33;20007;-74
2021/03/06 06:08:35;;;;;;;;;;;3.00;71.10;;;;;;4230486;34;20006;-74
2021/03/06 06:11:03;;;;;;;;;;;3.00;71.10;;;;;;4230236;34;20081;-74
2021/03/06 06:13:30;;;;;;;;;;;3.00;71.10;;;;;;4229535;34;32318;-75
2021/03/06 06:16:00;;;;;;;;;;;3.00;71.10;;;;;;4230589;34;20097;-74
2021/03/06 06:18:29;;;;;;;;;;;3.00;71.20;;;;;;4230928;33;31804;-74
2021/03/06 06:20:59;;;;;;;;;;;3.00;71.20;;;;;;4230869;33;30704;-74
2021/03/06 06:23:25;;;;;;;;;;;3.00;71.30;;;;;;4229967;33;20022;-74
2021/03/06 06:25:55;;;;;;;;;;;3.00;71.50;;;;;;4231071;33;27314;-74
2021/03/06 06:28:22;;;;;;;;;;;3.00;71.40;;;;;;4230603;33;30486;-74
2021/03/06 06:31:08;;;;;;;;;;;3.00;71.40;;;;;;4231771;33;20353;-74
2021/03/06 06:33:41;;;;;;;;;;;3.00;71.50;;;;;;4233795;33;20012;-74
2021/03/06 06:36:27;;;;;;;;;;;2.90;71.40;;;;;;4245279;33;20104;-74
2021/03/06 06:39:00;;;;;;;;;;;2.90;71.50;;;;;;4234485;33;20025;-74
2021/03/06 06:41:46;;;;;;;;;;;2.90;71.60;;;;;;4234190;33;20426;-74
2021/03/06 06:44:19;;;;;;;;;;;2.90;71.60;;;;;;4232896;34;20022;-74
2021/03/06 06:46:51;;;;;;;;;;;2.90;71.70;;;;;;4222052;34;20052;-74
2021/03/06 06:49:21;;;;;;;;;;;2.90;71.70;;;;;;4232762;33;20048;-74
2021/03/06 06:52:00;;;;;;;;;;;2.90;71.80;;;;;;4232934;33;43382;-74
2021/03/06 06:54:28;;;;;;;;;;;2.90;71.90;;;;;;4244378;33;20095;-74
2021/03/06 06:57:11;;;;;;;;;;;2.90;72.00;;;;;;4233645;33;20005;-74
2021/03/06 06:59:58;;;;;;;;;;;2.90;71.90;;;;;;4232513;34;20075;-74
2021/03/06 07:02:28;;;;;;;;;;;2.90;72.00;;;;;;4232418;33;20018;-74
2021/03/06 07:04:56;;;;;;;;;;;2.90;72.10;;;;;;4231987;34;32822;-74
2021/03/06 07:07:26;;;;;;;;;;;2.90;72.10;;;;;;4234237;33;20026;-74
2021/03/06 07:09:59;;;;;;;;;;;2.90;72.00;;;;;;4232817;33;20011;-74
2021/03/06 07:12:35;;;;;;;;;;;2.90;72.20;;;;;;4233080;34;20335;-74
2021/03/06 07:15:14;;;;;;;;;;;2.90;72.40;;;;;;4233024;34;20435;-74
2021/03/06 07:17:47;;;;;;;;;;;2.90;72.20;;;;;;4232945;33;20014;-74
2021/03/06 07:20:20;;;;;;;;;;;2.90;72.30;;;;;;4233829;33;20027;-74
2021/03/06 07:22:50;;;;;;;;;;;2.90;72.30;;;;;;4233573;33;20011;-74
2021/03/06 07:25:25;;;;;;;;;;;2.90;72.40;;;;;;4232738;34;20012;-74
2021/03/06 07:27:54;;;;;;;;;;;2.90;72.40;;;;;;4243937;33;20016;-74
2021/03/06 07:30:21;;;;;;;;;;;3.00;72.60;;;;;;4232607;33;35776;-74
2021/03/06 07:32:52;;;;;;;;;;;2.90;72.50;;;;;;4231934;33;20022;-74
2021/03/06 07:35:24;;;;;;;;;;;2.90;72.50;;;;;;4232534;33;20000;-74
2021/03/06 07:38:00;;;;;;;;;;;2.90;72.60;;;;;;4231703;34;37591;-74
2021/03/06 07:40:29;;;;;;;;;;;2.90;73.00;;;;;;4232072;33;43085;-74
2021/03/06 07:43:07;;;;;;;;;;;2.90;72.80;;;;;;4231872;33;20016;-74
2021/03/06 07:45:40;;;;;;;;;;;2.90;72.80;;;;;;4232221;34;20019;-74
2021/03/06 07:48:10;;;;;;;;;;;3.00;73.20;;;;;;4233529;33;20008;-74
2021/03/06 07:50:44;;;;;;;;;;;3.00;73.00;;;;;;4233270;33;20015;-74
2021/03/06 07:53:19;;;;;;;;;;;3.00;73.50;;;;;;4220598;34;20003;-74
2021/03/06 07:55:49;;;;;;;;;;;3.00;73.50;;;;;;4231512;34;43381;-74
2021/03/06 07:58:20;;;;;;;;;;;3.00;73.40;;;;;;4220669;34;20057;-74
2021/03/06 08:01:23;;;;;;;;;;;3.00;73.50;;;;;;4241917;33;20007;-74
2021/03/06 08:03:50;;;;;;;;;;;3.10;73.80;;;;;;4232771;33;27655;-74
2021/03/06 08:06:18;;;;;;;;;;;3.10;73.80;;;;;;4231722;33;38555;-74
2021/03/06 08:08:47;;;;;;;;;;;3.10;74.10;;;;;;4231591;33;41212;-74
2021/03/06 08:11:23;;;;;;;;;;;3.10;73.60;;;;;;4231580;33;20055;-74
2021/03/06 08:13:57;;;;;;;;;;;3.10;73.90;;;;;;4231920;34;20056;-74
2021/03/06 08:16:27;;;;;;;;;;;3.20;74.00;;;;;;4231348;34;20004;-74
2021/03/06 08:19:09;;;;;;;;;;;3.20;73.50;;;;;;4232815;33;20008;-74
2021/03/06 08:21:39;;;;;;;;;;;3.20;73.40;;;;;;4232735;33;20018;-74
2021/03/06 08:24:30;;;;;;;;;;;3.20;73.60;;;;;;4231521;34;20004;-74
2021/03/06 08:27:06;;;;;;;;;;;3.20;73.80;;;;;;4231862;34;20016;-75
2021/03/06 08:29:49;;;;;;;;;;;3.30;73.60;;;;;;4231676;33;44768;-75
2021/03/06 08:32:32;;;;;;;;;;;3.30;73.80;;;;;;4231775;33;29765;-75
2021/03/06 08:35:19;;;;;;;;;;;3.30;73.70;;;;;;4219019;34;29599;-75
2021/03/06 08:37:46;;;;;;;;;;;3.40;73.60;;;;;;4230187;34;45607;-75
2021/03/06 08:40:15;;;;;;;;;;;3.40;73.80;;;;;;4218924;34;33635;-75
2021/03/06 08:42:59;;;;;;;;;;;3.40;73.70;;;;;;4242263;33;32341;-75
2021/03/06 08:45:29;;;;;;;;;;;3.40;73.50;;;;;;4242286;33;36813;-75
2021/03/06 08:48:02;;;;;;;;;;;3.50;73.40;;;;;;4230452;34;33748;-75
2021/03/06 08:50:35;;;;;;;;;;;3.50;73.50;;;;;;4220145;34;20086;-75
2021/03/06 08:53:11;;;;;;;;;;;3.50;73.60;;;;;;4242067;33;22817;-75
2021/03/06 08:55:43;;;;;;;;;;;3.50;73.40;;;;;;4231802;33;29313;-75
2021/03/06 08:58:19;;;;;;;;;;;3.50;73.40;;;;;;4230351;33;32525;-75
2021/03/06 09:00:49;;;;;;;;;;;3.60;73.40;;;;;;4232348;33;20016;-75
2021/03/06 09:03:21;;;;;;;;;;;3.60;73.60;;;;;;4229882;34;36140;-75
2021/03/06 09:05:54;;;;;;;;;;;3.60;73.40;;;;;;4231446;34;20019;-75
2021/03/06 09:08:25;;;;;;;;;;;3.60;73.60;;;;;;4230196;34;40777;-75
2021/03/06 09:11:00;;;;;;;;;;;3.60;73.60;;;;;;4231277;34;20055;-75
2021/03/06 09:13:33;;;;;;;;;;;3.70;73.50;;;;;;4231747;33;28862;-75
2021/03/06 09:16:03;;;;;;;;;;;3.70;73.50;;;;;;4231700;33;24472;-75
2021/03/06 09:18:34;;;;;;;;;;;3.80;73.50;;;;;;4232293;33;20019;-75
2021/03/06 09:21:10;;;;;;;;;;;3.80;73.60;;;;;;4231029;34;20015;-75
2021/03/06 09:23:44;;;;;;;;;;;3.80;73.40;;;;;;4230410;34;20019;-75
2021/03/06 09:26:19;;;;;;;;;;;3.80;73.50;;;;;;4232311;33;20007;-75
2021/03/06 09:28:50;;;;;;;;;;;3.80;73.60;;;;;;4230283;34;23492;-75
2021/03/06 09:31:21;;;;;;;;;;;3.90;73.80;;;;;;4230116;34;35754;-75
2021/03/06 09:33:59;;;;;;;;;;;3.90;73.80;;;;;;4232209;33;20014;-75
2021/03/06 09:36:35;;;;;;;;;;;3.90;73.70;;;;;;4230477;33;20012;-75
2021/03/06 09:39:09;;;;;;;;;;;3.90;74.00;;;;;;4232271;33;20071;-75
2021/03/06 09:41:38;;;;;;;;;;;4.00;74.00;;;;;;4231171;33;33070;-75
2021/03/06 09:44:09;;;;;;;;;;;4.00;73.70;;;;;;4230381;33;20004;-75
2021/03/06 09:46:38;;;;;;;;;;;4.00;74.20;;;;;;4231970;33;20084;-75
2021/03/06 09:49:07;;;;;;;;;;;4.10;74.00;;;;;;4231635;33;20376;-75
2021/03/06 09:51:43;;;;;;;;;;;4.10;74.10;;;;;;4242306;33;20059;-75
2021/03/06 09:54:11;;;;;;;;;;;4.10;73.80;;;;;;4230669;34;20393;-75
2021/03/06 09:56:49;;;;;;;;;;;4.20;73.60;;;;;;4231388;33;20107;-75
2021/03/06 09:59:21;;;;;;;;;;;4.20;73.40;;;;;;4230202;34;20409;-75
2021/03/06 10:01:48;;;;;;;;;;;4.20;73.30;;;;;;4230407;33;20026;-75
2021/03/06 10:04:21;;;;;;;;;;;4.30;73.60;;;;;;4231397;33;20402;-75
2021/03/06 10:06:52;;;;;;;;;;;4.30;73.40;;;;;;4229762;33;31069;-75
2021/03/06 10:09:25;;;;;;;;;;;4.30;73.70;;;;;;4230771;34;20008;-75
2021/03/06 10:11:58;;;;;;;;;;;4.30;73.40;;;;;;4229269;33;38738;-75
2021/03/06 10:14:33;;;;;;;;;;;4.40;73.20;;;;;;4230209;34;20027;-75
2021/03/06 10:17:04;;;;;;;;;;;4.40;73.00;;;;;;4242175;33;20059;-75
2021/03/06 10:19:51;;;;;;;;;;;4.40;73.00;;;;;;4218940;34;20000;-75
2021/03/06 10:22:21;;;;;;;;;;;4.40;72.80;;;;;;4229325;33;30812;-75
2021/03/06 10:24:58;;;;;;;;;;;4.50;72.90;;;;;;4231362;33;20016;-75
2021/03/06 10:27:37;;;;;;;;;;;4.50;72.70;;;;;;4241247;33;33573;-75
2021/03/06 10:30:23;;;;;;;;;;;4.60;73.40;;;;;;4241044;33;40848;-76
2021/03/06 10:32:55;;;;;;;;;;;4.60;72.60;;;;;;4229501;34;30713;-75
2021/03/06 10:35:37;;;;;;;;;;;4.60;72.60;;;;;;4230474;34;20067;-75
2021/03/06 10:38:08;;;;;;;;;;;4.70;72.50;;;;;;4230322;34;19999;-75
2021/03/06 10:40:47;;;;;;;;;;;4.70;72.00;;;;;;4230290;34;20019;-76
2021/03/06 10:43:33;;;;;;;;;;;4.70;72.00;;;;;;4230308;33;20428;-76
2021/03/06 10:46:19;;;;;;;;;;;4.80;71.90;;;;;;4229460;34;35852;-75
2021/03/06 10:48:59;;;;;;;;;;;4.80;72.00;;;;;;4242051;33;20052;-75
2021/03/06 10:51:42;;;;;;;;;;;4.90;71.60;;;;;;4231492;33;20027;-75
2021/03/06 10:54:14;;;;;;;;;;;4.90;71.40;;;;;;4231025;33;20146;-76
2021/03/06 10:56:46;;;;;;;;;;;4.90;71.10;;;;;;4230563;34;20016;-76
2021/03/06 10:59:34;;;;;;;;;;;5.00;71.00;;;;;;4231470;33;20008;-76
2021/03/06 11:02:01;;;;;;;;;;;5.10;71.00;;;;;;4228794;34;38669;-76
2021/03/06 11:04:33;;;;;;;;;;;5.10;70.80;;;;;;4231081;33;20003;-75
2021/03/06 11:07:01;;;;;;;;;;;5.20;70.70;;;;;;4230355;33;20066;-75
2021/03/06 11:09:29;;;;;;;;;;;5.20;71.40;;;;;;4231348;33;20047;-75
2021/03/06 11:11:56;;;;;;;;;;;5.30;70.70;;;;;;4229986;34;20020;-75
2021/03/06 11:14:28;;;;;;;;;;;5.30;70.50;;;;;;4229893;34;20004;-75
2021/03/06 11:16:58;;;;;;;;;;;5.40;70.30;;;;;;4232736;33;20004;-75
2021/03/06 11:19:28;;;;;;;;;;;5.50;70.20;;;;;;4232526;33;20008;-76
2021/03/06 11:21:58;;;;;;;;;;;5.50;70.10;;;;;;4232731;34;20024;-75
2021/03/06 11:24:30;;;;;;;;;;;5.50;70.10;;;;;;4233410;33;20008;-76
2021/03/06 11:26:57;;;;;;;;;;;5.60;69.80;;;;;;4233666;33;20131;-76
2021/03/06 11:29:38;;;;;;;;;;;5.60;69.50;;;;;;4232639;33;20055;-76
2021/03/06 11:32:07;;;;;;;;;;;5.70;69.40;;;;;;4244135;33;20008;-76
2021/03/06 11:34:34;;;;;;;;;;;5.70;69.40;;;;;;4233593;33;20022;-77
2021/03/06 11:37:07;;;;;;;;;;;5.80;69.30;;;;;;4232109;33;20071;-76
2021/03/06 11:39:34;;;;;;;;;;;5.80;69.10;;;;;;4244526;33;20016;-76
2021/03/06 11:42:02;;;;;;;;;;;5.80;69.40;;;;;;4232781;33;20131;-76
2021/03/06 11:44:32;;;;;;;;;;;5.90;69.40;;;;;;4232131;34;20016;-75
2021/03/06 11:47:01;;;;;;;;;;;5.90;69.30;;;;;;4232053;34;20006;-76
2021/03/06 11:49:28;;;;;;;;;;;6.00;69.30;;;;;;4243735;33;20382;-75
2021/03/06 11:52:03;;;;;;;;;;;6.00;68.80;;;;;;4243263;33;20015;-75
2021/03/06 11:54:32;;;;;;;;;;;6.10;68.80;;;;;;4232161;34;20051;-76
2021/03/06 11:57:22;;;;;;;;;;;6.20;69.10;;;;;;4242188;33;20026;-75
2021/03/06 11:59:53;;;;;;;;;;;6.20;68.90;;;;;;4232235;34;20343;-75
2021/03/06 12:02:22;;;;;;;;;;;6.30;68.80;;;;;;4232768;33;20075;-75
2021/03/06 12:04:49;;;;;;;;;;;6.30;68.40;;;;;;4232283;34;20030;-75
2021/03/06 12:07:18;;;;;;;;;;;6.30;68.40;;;;;;4233276;33;20004;-76
2021/03/06 12:09:47;;;;;;;;;;;6.40;68.10;;;;;;4232921;33;20022;-75
2021/03/06 12:12:17;;;;;;;;;;;6.50;68.10;;;;;;4220352;34;20014;-76
2021/03/06 12:14:44;;;;;;;;;;;6.50;67.70;;;;;;4232717;33;20029;-75
2021/03/06 12:17:16;;;;;;;;;;;6.50;67.60;;;;;;4243155;33;20080;-76
2021/03/06 12:19:45;;;;;;;;;;;6.50;67.20;;;;;;4231041;33;28437;-75
2021/03/06 12:22:12;;;;;;;;;;;6.60;67.50;;;;;;4232373;33;24776;-75
2021/03/06 12:24:38;;;;;;;;;;;6.60;67.10;;;;;;4231933;33;23975;-75
2021/03/06 12:27:08;;;;;;;;;;;6.70;67.00;;;;;;4231329;33;20040;-75
2021/03/06 12:29:34;;;;;;;;;;;6.70;67.20;;;;;;4231714;33;37738;-75
2021/03/06 12:32:04;;;;;;;;;;;6.70;66.90;;;;;;4242771;33;21240;-75
2021/03/06 12:34:30;;;;;;;;;;;6.80;66.80;;;;;;4230298;34;44023;-75
2021/03/06 12:36:59;;;;;;;;;;;6.80;66.60;;;;;;4230678;34;34615;-75
2021/03/06 12:39:26;;;;;;;;;;;6.80;66.70;;;;;;4230189;34;46618;-75
2021/03/06 12:41:55;;;;;;;;;;;6.90;66.80;;;;;;4242272;33;37138;-74
2021/03/06 12:44:22;;;;;;;;;;;6.90;66.60;;;;;;4230405;34;39300;-75
2021/03/06 12:46:49;;;;;;;;;;;6.90;66.70;;;;;;4232745;33;20050;-75
2021/03/06 12:49:17;;;;;;;;;;;7.00;66.60;;;;;;4232714;33;20068;-75
2021/03/06 12:51:43;;;;;;;;;;;7.00;66.60;;;;;;4232130;33;20430;-75
2021/03/06 12:54:10;;;;;;;;;;;7.10;66.50;;;;;;4232569;33;20072;-75
2021/03/06 12:56:38;;;;;;;;;;;7.10;66.30;;;;;;4230314;34;44295;-75
2021/03/06 12:59:07;;;;;;;;;;;7.10;66.30;;;;;;4231080;34;20019;-75
2021/03/06 13:01:36;;;;;;;;;;;7.10;66.00;;;;;;4230576;34;20008;-75
2021/03/06 13:04:06;;;;;;;;;;;7.10;66.20;;;;;;4230119;33;43105;-75
2021/03/06 13:06:38;;;;;;;;;;;7.20;66.00;;;;;;4242057;33;33410;-76
2021/03/06 13:09:13;;;;;;;;;;;7.20;66.20;;;;;;4218934;34;31565;-75
2021/03/06 13:11:45;;;;;;;;;;;7.20;66.10;;;;;;4230646;33;22491;-75
2021/03/06 13:14:12;;;;;;;;;;;7.20;65.60;;;;;;4230767;34;20011;-75
2021/03/06 13:16:38;;;;;;;;;;;7.30;65.90;;;;;;4230583;33;44978;-75
2021/03/06 13:19:08;;;;;;;;;;;7.30;66.00;;;;;;4232286;33;20342;-75
2021/03/06 13:21:44;;;;;;;;;;;7.30;66.20;;;;;;4230640;33;43063;-75
2021/03/06 13:24:13;;;;;;;;;;;7.30;65.90;;;;;;4231241;33;33902;-76
2021/03/06 13:26:45;;;;;;;;;;;7.40;66.20;;;;;;4229829;33;40444;-75
2021/03/06 13:29:14;;;;;;;;;;;7.40;65.80;;;;;;4230192;34;30846;-75
2021/03/06 13:31:46;;;;;;;;;;;7.40;65.60;;;;;;4230134;34;27983;-75
2021/03/06 13:34:21;;;;;;;;;;;7.40;65.30;;;;;;4230494;34;20038;-76
2021/03/06 13:36:56;;;;;;;;;;;7.50;65.40;;;;;;4231194;33;30435;-75
2021/03/06 13:39:30;;;;;;;;;;;7.50;65.60;;;;;;4242320;33;20012;-75
2021/03/06 13:42:06;;;;;;;;;;;7.50;64.60;;;;;;4232164;33;20421;-75
2021/03/06 13:44:32;;;;;;;;;;;7.50;65.20;;;;;;4241628;33;36327;-75
2021/03/06 13:46:59;;;;;;;;;;;7.50;65.10;;;;;;4241504;33;25990;-75
2021/03/06 13:49:25;;;;;;;;;;;7.50;65.20;;;;;;4230485;33;43633;-75
2021/03/06 13:51:52;;;;;;;;;;;7.60;65.10;;;;;;4229366;33;42693;-75
2021/03/06 13:54:19;;;;;;;;;;;7.60;64.70;;;;;;4229598;34;43363;-75
2021/03/06 13:56:46;;;;;;;;;;;7.60;64.70;;;;;;4230861;33;36624;-75
2021/03/06 13:59:12;;;;;;;;;;;7.60;64.70;;;;;;4230060;33;44707;-75
2021/03/06 14:01:41;;;;;;;;;;;7.60;63.40;;;;;;4230539;34;20018;-75
2021/03/06 14:04:08;;;;;;;;;;;7.60;61.70;;;;;;4229051;34;43848;-75
2021/03/06 14:06:34;;;;;;;;;;;7.60;62.60;;;;;;4230361;33;43699;-75
2021/03/06 14:09:04;;;;;;;;;;;7.50;62.50;;;;;;4230709;33;39732;-75
2021/03/06 14:11:33;;;;;;;;;;;7.50;62.80;;;;;;4230305;33;36706;-75
2021/03/06 14:14:01;;;;;;;;;;;7.50;63.30;;;;;;4242023;33;20078;-75
2021/03/06 14:16:27;;;;;;;;;;;7.50;62.90;;;;;;4229184;34;42939;-76
2021/03/06 14:18:54;;;;;;;;;;;7.50;62.60;;;;;;4229861;33;33915;-76
2021/03/06 14:21:20;;;;;;;;;;;7.40;62.50;;;;;;4229763;33;41520;-75
2021/03/06 14:23:47;;;;;;;;;;;7.40;62.10;;;;;;4241030;33;44049;-75
2021/03/06 14:26:13;;;;;;;;;;;7.40;62.10;;;;;;4229360;34;44328;-76
2021/03/06 14:28:40;;;;;;;;;;;7.40;62.70;;;;;;4229989;33;43874;-75
2021/03/06 14:31:06;;;;;;;;;;;7.40;61.90;;;;;;4217990;34;28909;-76
2021/03/06 14:33:33;;;;;;;;;;;7.40;62.30;;;;;;4230714;33;22992;-75
2021/03/06 14:36:00;;;;;;;;;;;7.40;62.50;;;;;;4229963;33;41367;-76
2021/03/06 14:38:26;;;;;;;;;;;7.40;62.80;;;;;;4230308;33;45502;-76
2021/03/06 14:40:53;;;;;;;;;;;7.50;61.60;;;;;;4229455;34;36720;-76
2021/03/06 14:43:21;;;;;;;;;;;7.50;62.40;;;;;;4240987;33;44696;-76
2021/03/06 14:45:48;;;;;;;;;;;7.50;61.20;;;;;;4230155;33;32643;-76
2021/03/06 14:48:18;;;;;;;;;;;7.40;61.50;;;;;;4218896;34;20008;-76
2021/03/06 14:50:47;;;;;;;;;;;7.40;61.90;;;;;;4231802;33;20004;-75
2021/03/06 14:53:17;;;;;;;;;;;7.40;61.60;;;;;;4232923;34;20000;-76
2021/03/06 14:55:44;;;;;;;;;;;7.40;61.40;;;;;;4233442;33;20007;-76